Time;durP1;ratioP1;P1;durP2;ratioP2;P2;SDS_P1;SDS_P2;PMS_P1;PMS_P2;Temp;Humidity;BMP_temperature;BMP_pressure;BME280_temperature;BME280_humidity;BME280_pressure;Samples;Min_cycle;Max_cycle;Signal;HPM_P1;HPM_P2
2020/12/25 00:02:04;;;;;;;7.57;3.90;;;4.40;99.90;;;;;;4993747;28;20991;-75
2020/12/25 00:04:30;;;;;;;7.73;3.40;;;4.30;99.90;;;;;;4993996;28;20167;-75
2020/12/25 00:06:56;;;;;;;3.47;3.17;;;4.30;99.90;;;;;;4994411;28;20498;-75
2020/12/25 00:09:22;;;;;;;11.15;3.58;;;4.30;99.90;;;;;;4994239;28;20442;-75
2020/12/25 00:11:47;;;;;;;12.13;3.30;;;4.20;99.90;;;;;;4993986;28;20238;-75
2020/12/25 00:14:13;;;;;;;4.53;2.80;;;4.20;99.90;;;;;;4993746;28;20245;-75
2020/12/25 00:16:39;;;;;;;5.30;4.50;;;4.40;99.90;;;;;;4993867;28;20179;-75
2020/12/25 00:19:05;;;;;;;7.00;4.23;;;4.20;99.90;;;;;;4993917;28;20597;-75
2020/12/25 00:21:32;;;;;;;7.13;5.60;;;4.10;99.90;;;;;;4993818;28;20523;-75
2020/12/25 00:23:58;;;;;;;6.78;5.88;;;4.20;99.90;;;;;;4993563;28;20790;-76
2020/12/25 00:26:26;;;;;;;10.48;7.80;;;4.20;99.90;;;;;;4993817;28;20265;-74
2020/12/25 00:28:52;;;;;;;16.15;8.65;;;4.30;99.90;;;;;;4992334;28;20205;-75
2020/12/25 00:31:45;;;;;;;12.38;9.60;;;4.20;99.90;;;;;;4994011;28;20202;-74
2020/12/25 00:34:11;;;;;;;21.15;9.80;;;4.30;99.90;;;;;;4992529;28;20270;-75
2020/12/25 00:36:42;;;;;;;16.93;9.40;;;4.30;99.90;;;;;;4994027;28;20207;-76
2020/12/25 00:39:10;;;;;;;21.20;9.60;;;4.30;99.90;;;;;;4993830;28;20572;-75
2020/12/25 00:41:40;;;;;;;13.60;9.10;;;4.50;99.90;;;;;;4993663;28;20273;-75
2020/12/25 00:44:07;;;;;;;14.05;10.18;;;4.50;99.90;;;;;;4993680;28;20179;-74
2020/12/25 00:46:32;;;;;;;26.13;11.77;;;4.50;99.90;;;;;;4993675;28;20164;-76
2020/12/25 00:48:58;;;;;;;20.40;10.67;;;4.60;99.90;;;;;;4993772;28;20176;-75
2020/12/25 00:51:23;;;;;;;22.70;12.27;;;4.50;99.90;;;;;;4993614;28;20290;-75
2020/12/25 00:53:49;;;;;;;20.13;11.27;;;4.50;99.90;;;;;;4993330;28;20190;-75
2020/12/25 00:56:16;;;;;;;17.03;11.33;;;4.60;99.90;;;;;;4993847;28;20179;-74
2020/12/25 00:58:42;;;;;;;21.65;11.40;;;4.60;99.90;;;;;;4993511;28;20535;-75
2020/12/25 01:01:09;;;;;;;17.02;12.15;;;4.60;99.90;;;;;;4993534;28;20657;-74
2020/12/25 01:03:36;;;;;;;23.00;14.13;;;4.60;99.90;;;;;;4996758;28;20191;-75
2020/12/25 01:06:07;;;;;;;22.33;14.00;;;4.60;99.90;;;;;;4997546;28;20245;-75
2020/12/25 01:08:33;;;;;;;22.20;14.48;;;4.50;99.90;;;;;;4997507;28;20164;-75
2020/12/25 01:10:58;;;;;;;25.90;16.13;;;4.50;99.90;;;;;;4997115;28;20225;-74
2020/12/25 01:13:24;;;;;;;25.33;14.83;;;4.50;99.90;;;;;;4997225;28;20586;-74
2020/12/25 01:15:49;;;;;;;29.43;15.43;;;4.50;99.90;;;;;;4997243;28;20183;-75
2020/12/25 01:18:15;;;;;;;22.63;13.83;;;4.50;99.90;;;;;;4997292;28;20222;-75
2020/12/25 01:20:40;;;;;;;19.53;12.20;;;4.60;99.90;;;;;;4996968;28;20723;-76
2020/12/25 01:23:06;;;;;;;17.23;11.27;;;4.50;99.90;;;;;;4996655;28;20177;-75
2020/12/25 01:25:32;;;;;;;28.23;13.20;;;4.50;99.90;;;;;;4997172;28;20183;-75
2020/12/25 01:27:57;;;;;;;17.93;10.57;;;4.60;99.90;;;;;;4996809;28;20553;-75
2020/12/25 01:30:23;;;;;;;15.83;11.40;;;4.50;99.90;;;;;;4997013;28;20184;-75
2020/12/25 01:32:48;;;;;;;18.57;11.90;;;4.50;99.90;;;;;;4996847;28;20639;-74
2020/12/25 01:35:14;;;;;;;14.70;9.73;;;4.30;99.90;;;;;;4996999;28;20513;-75
2020/12/25 01:37:40;;;;;;;13.10;8.87;;;4.40;99.90;;;;;;4996958;28;20183;-75
2020/12/25 01:40:06;;;;;;;12.80;8.40;;;4.40;99.90;;;;;;4996995;28;20225;-75
2020/12/25 01:42:34;;;;;;;15.03;9.83;;;4.40;99.90;;;;;;4996455;28;20204;-75
2020/12/25 01:45:00;;;;;;;21.33;11.00;;;4.40;99.90;;;;;;4996691;28;20449;-74
2020/12/25 01:47:26;;;;;;;19.15;11.13;;;4.30;99.90;;;;;;4996585;28;20592;-75
2020/12/25 01:49:52;;;;;;;17.57;10.77;;;4.40;99.90;;;;;;4996676;28;20179;-75
2020/12/25 01:52:18;;;;;;;17.90;10.90;;;4.40;99.90;;;;;;4996184;28;20191;-75
2020/12/25 01:54:46;;;;;;;24.50;12.37;;;4.50;99.90;;;;;;4996732;28;20225;-75
2020/12/25 01:57:13;;;;;;;18.02;11.52;;;4.50;99.90;;;;;;4996588;28;20469;-75
2020/12/25 01:59:40;;;;;;;18.42;12.02;;;4.70;99.90;;;;;;4996483;28;20667;-75
2020/12/25 02:02:08;;;;;;;17.80;12.10;;;4.50;99.90;;;;;;4996110;28;20246;-75
2020/12/25 02:04:34;;;;;;;24.02;13.82;;;4.50;99.90;;;;;;4996481;28;20180;-75
2020/12/25 02:06:59;;;;;;;21.63;12.80;;;4.40;99.90;;;;;;4996410;28;20645;-75
2020/12/25 02:09:25;;;;;;;15.90;11.07;;;4.50;99.90;;;;;;4996235;28;20176;-75
2020/12/25 02:11:51;;;;;;;22.63;11.40;;;4.50;99.90;;;;;;4996076;28;20205;-75
2020/12/25 02:14:17;;;;;;;21.77;9.98;;;4.50;99.90;;;;;;4995360;28;20226;-74
2020/12/25 02:16:42;;;;;;;16.17;9.53;;;4.30;99.90;;;;;;4996210;28;20207;-75
2020/12/25 02:19:08;;;;;;;17.60;9.83;;;4.40;99.90;;;;;;4995932;28;20187;-74
2020/12/25 02:21:34;;;;;;;17.40;9.80;;;4.30;99.90;;;;;;4995762;28;20279;-75
2020/12/25 02:24:00;;;;;;;14.73;9.47;;;4.40;99.90;;;;;;4995647;28;20895;-75
2020/12/25 02:26:25;;;;;;;17.73;8.37;;;4.20;99.90;;;;;;4995994;28;20764;-75
2020/12/25 02:28:51;;;;;;;10.07;7.83;;;4.30;99.90;;;;;;4995816;28;20187;-74
2020/12/25 02:31:17;;;;;;;10.90;7.45;;;4.30;99.90;;;;;;4995715;28;20211;-75
2020/12/25 02:33:43;;;;;;;10.60;6.83;;;4.20;99.90;;;;;;4995444;28;20179;-75
2020/12/25 02:36:09;;;;;;;15.82;8.23;;;4.20;99.90;;;;;;4995809;28;20174;-74
2020/12/25 02:38:34;;;;;;;11.90;7.83;;;4.10;99.90;;;;;;4995923;28;20250;-75
2020/12/25 02:41:00;;;;;;;12.73;8.30;;;4.10;99.90;;;;;;4995431;28;20683;-73
2020/12/25 02:43:25;;;;;;;13.57;7.97;;;4.20;99.90;;;;;;4995505;28;20179;-75
2020/12/25 02:45:51;;;;;;;19.43;8.93;;;4.20;99.90;;;;;;4995863;28;20199;-75
2020/12/25 02:48:17;;;;;;;17.77;8.70;;;4.10;99.90;;;;;;4995717;28;20539;-75
2020/12/25 02:50:42;;;;;;;18.03;8.63;;;4.10;99.90;;;;;;4995487;28;20263;-75
2020/12/25 02:53:08;;;;;;;15.47;8.70;;;4.00;99.90;;;;;;4995223;28;20579;-74
2020/12/25 02:55:33;;;;;;;12.00;7.63;;;4.10;99.90;;;;;;4995453;28;20180;-75
2020/12/25 02:57:59;;;;;;;15.73;7.23;;;4.20;99.90;;;;;;4995352;28;20245;-74
2020/12/25 03:00:24;;;;;;;11.70;5.40;;;4.10;99.90;;;;;;4995249;28;20203;-74
2020/12/25 03:02:50;;;;;;;14.27;7.03;;;4.00;99.90;;;;;;4995024;28;20731;-75
2020/12/25 03:05:16;;;;;;;9.53;5.93;;;4.00;99.90;;;;;;4995224;28;20247;-74
2020/12/25 03:07:41;;;;;;;10.60;5.87;;;4.00;99.90;;;;;;4995066;28;20565;-74
2020/12/25 03:10:07;;;;;;;10.47;5.33;;;3.90;99.90;;;;;;4994934;28;20176;-76
2020/12/25 03:12:32;;;;;;;8.50;5.43;;;3.90;99.90;;;;;;4994745;28;20191;-75
2020/12/25 03:14:58;;;;;;;10.37;5.60;;;4.00;99.90;;;;;;4995032;28;20630;-76
2020/12/25 03:17:23;;;;;;;12.13;5.70;;;3.90;99.90;;;;;;4994957;28;20172;-75
2020/12/25 03:19:49;;;;;;;9.97;5.43;;;3.80;99.90;;;;;;4994835;28;20178;-75
2020/12/25 03:22:15;;;;;;;12.30;5.60;;;3.80;99.90;;;;;;4994543;28;20214;-75
2020/12/25 03:24:41;;;;;;;6.80;6.00;;;3.80;99.90;;;;;;4994725;28;20182;-75
2020/12/25 03:27:06;;;;;;;8.57;5.23;;;3.70;99.90;;;;;;4994813;28;20290;-75
2020/12/25 03:29:32;;;;;;;13.60;5.30;;;3.80;99.90;;;;;;4994646;28;20441;-76
2020/12/25 03:31:57;;;;;;;10.73;5.93;;;3.80;99.90;;;;;;4994133;28;20194;-75
2020/12/25 03:34:23;;;;;;;10.17;6.60;;;3.70;99.90;;;;;;4994684;28;20258;-75
2020/12/25 03:36:48;;;;;;;11.53;5.53;;;3.80;99.90;;;;;;4994847;28;20174;-75
2020/12/25 03:39:14;;;;;;;11.57;5.60;;;3.80;99.90;;;;;;4994695;28;20548;-75
2020/12/25 03:41:40;;;;;;;10.93;6.23;;;3.80;99.90;;;;;;4994536;28;20214;-74
2020/12/25 03:44:05;;;;;;;11.07;6.00;;;3.70;99.90;;;;;;4994215;28;20205;-74
2020/12/25 03:46:35;;;;;;;8.93;5.20;;;3.80;99.90;;;;;;4994599;28;20236;-74
2020/12/25 03:49:03;;;;;;;13.50;6.32;;;3.60;99.90;;;;;;4994520;28;20180;-76
2020/12/25 03:51:28;;;;;;;12.07;5.55;;;3.60;99.90;;;;;;4994518;28;20198;-74
2020/12/25 03:53:54;;;;;;;11.43;5.20;;;3.60;99.90;;;;;;4993981;28;20178;-75
2020/12/25 03:56:19;;;;;;;14.40;6.17;;;3.60;99.90;;;;;;4994332;28;20181;-75
2020/12/25 03:58:45;;;;;;;12.90;6.23;;;3.70;99.90;;;;;;4994315;28;20386;-74
2020/12/25 04:01:11;;;;;;;12.33;6.00;;;3.70;99.90;;;;;;4994278;28;20218;-75
2020/12/25 04:03:36;;;;;;;19.77;7.80;;;3.60;99.90;;;;;;4993969;28;20171;-75
2020/12/25 04:06:02;;;;;;;11.87;5.00;;;3.60;99.90;;;;;;4994223;28;20658;-74
2020/12/25 04:08:27;;;;;;;8.50;5.20;;;3.50;99.90;;;;;;4994277;28;20288;-75
2020/12/25 04:10:53;;;;;;;16.50;6.13;;;3.40;99.90;;;;;;4994185;28;20629;-75
2020/12/25 04:13:18;;;;;;;12.23;5.90;;;3.40;99.90;;;;;;4993860;28;20186;-75
2020/12/25 04:15:44;;;;;;;15.97;5.77;;;3.40;99.90;;;;;;4993999;28;20268;-75
2020/12/25 04:18:10;;;;;;;16.13;5.40;;;3.40;99.90;;;;;;4993812;28;20276;-75
2020/12/25 04:20:35;;;;;;;14.53;5.23;;;3.40;99.90;;;;;;4993795;28;20218;-74
2020/12/25 04:23:01;;;;;;;13.70;5.60;;;3.40;99.90;;;;;;4993783;28;20190;-75
2020/12/25 04:25:26;;;;;;;10.67;4.57;;;3.30;99.90;;;;;;4993993;28;20174;-74
2020/12/25 04:27:52;;;;;;;11.90;5.20;;;3.40;99.90;;;;;;4993883;28;20522;-75
2020/12/25 04:30:17;;;;;;;12.33;5.37;;;3.30;99.90;;;;;;4993864;28;20190;-74
2020/12/25 04:32:43;;;;;;;15.23;6.30;;;3.30;99.90;;;;;;4993364;28;20236;-75
2020/12/25 04:35:08;;;;;;;19.30;7.30;;;3.30;99.90;;;;;;4993672;28;20180;-73
2020/12/25 04:37:34;;;;;;;9.23;4.93;;;3.20;99.90;;;;;;4997786;28;20706;-74
2020/12/25 04:40:04;;;;;;;7.17;4.60;;;3.30;99.90;;;;;;5000238;28;20180;-74
2020/12/25 04:42:30;;;;;;;12.95;5.00;;;3.20;99.90;;;;;;4999701;28;20195;-74
2020/12/25 04:44:55;;;;;;;10.10;4.82;;;3.20;99.90;;;;;;5000235;28;20168;-75
2020/12/25 04:47:21;;;;;;;13.73;5.40;;;3.20;99.90;;;;;;5000159;28;20720;-75
2020/12/25 04:49:48;;;;;;;13.67;5.70;;;3.10;99.90;;;;;;5000194;28;20185;-75
2020/12/25 04:52:13;;;;;;;18.88;7.18;;;3.20;99.90;;;;;;4999939;28;20203;-75
2020/12/25 04:54:39;;;;;;;19.40;6.33;;;3.20;99.90;;;;;;5000321;28;20654;-75
2020/12/25 04:57:04;;;;;;;12.57;6.07;;;3.10;99.90;;;;;;5000344;28;20581;-75
2020/12/25 04:59:31;;;;;;;7.90;5.20;;;3.10;99.90;;;;;;5000205;28;20186;-75
2020/12/25 05:02:00;;;;;;;19.55;7.38;;;3.00;99.90;;;;;;4999864;28;20246;-75
2020/12/25 05:04:25;;;;;;;20.60;8.15;;;3.10;99.90;;;;;;5000105;28;20188;-74
2020/12/25 05:06:52;;;;;;;14.43;7.30;;;3.20;99.90;;;;;;5000084;28;20185;-75
2020/12/25 05:09:21;;;;;;;23.17;9.95;;;3.00;99.90;;;;;;5000038;28;20177;-75
2020/12/25 05:11:57;;;;;;;13.25;5.68;;;3.10;99.90;;;;;;4999819;28;20706;-74
2020/12/25 05:14:32;;;;;;;13.60;5.95;;;2.80;99.90;;;;;;4999907;28;20261;-74
2020/12/25 05:16:59;;;;;;;13.65;6.60;;;2.70;99.90;;;;;;4999938;28;20534;-74
2020/12/25 05:19:32;;;;;;;16.92;6.82;;;2.60;99.90;;;;;;5000026;28;20180;-74
2020/12/25 05:22:00;;;;;;;13.88;6.30;;;2.70;99.90;;;;;;4999482;28;20216;-74
2020/12/25 05:24:27;;;;;;;16.75;7.40;;;2.70;99.90;;;;;;4999741;28;20185;-77
2020/12/25 05:26:57;;;;;;;11.55;5.75;;;2.60;99.90;;;;;;4999738;28;20184;-75
2020/12/25 05:29:27;;;;;;;12.48;6.57;;;2.60;99.90;;;;;;4999752;28;20184;-75
2020/12/25 05:31:54;;;;;;;14.95;7.22;;;2.60;99.90;;;;;;4999486;28;20657;-75
2020/12/25 05:34:21;;;;;;;26.40;7.85;;;2.30;99.90;;;;;;4999813;28;20233;-75
2020/12/25 05:36:51;;;;;;;20.63;7.22;;;2.40;99.90;;;;;;4999674;28;20178;-74
2020/12/25 05:39:29;;;;;;;14.30;6.85;;;2.40;99.90;;;;;;4999667;28;20187;-74
2020/12/25 05:42:00;;;;;;;17.75;7.35;;;2.40;99.90;;;;;;4999403;28;20218;-73
2020/12/25 05:44:28;;;;;;;12.02;6.75;;;2.50;99.90;;;;;;5000013;28;20269;-75
2020/12/25 05:47:01;;;;;;;10.60;5.68;;;2.50;99.90;;;;;;4999705;28;20173;-74
2020/12/25 05:49:28;;;;;;;15.63;6.78;;;2.40;99.90;;;;;;4996055;28;20200;-74
2020/12/25 05:51:54;;;;;;;12.55;5.53;;;2.50;99.90;;;;;;4996198;28;20230;-74
2020/12/25 05:54:21;;;;;;;9.88;4.68;;;2.60;99.90;;;;;;4996636;28;20191;-74
2020/12/25 05:57:07;;;;;;;8.05;4.30;;;2.70;99.90;;;;;;4996698;28;20323;-74
2020/12/25 05:59:33;;;;;;;16.05;5.22;;;2.50;99.90;;;;;;4996477;28;20171;-73
2020/12/25 06:02:04;;;;;;;10.30;4.67;;;2.50;99.90;;;;;;4995832;28;20219;-75
2020/12/25 06:04:32;;;;;;;12.63;4.40;;;2.50;99.90;;;;;;4996529;28;20233;-75
2020/12/25 06:06:58;;;;;;;12.40;3.83;;;2.60;99.90;;;;;;4996423;28;20253;-75
2020/12/25 06:09:32;;;;;;;7.32;3.95;;;2.50;99.90;;;;;;4996211;28;20197;-74
2020/12/25 06:11:58;;;;;;;18.40;4.90;;;2.60;99.90;;;;;;4995765;28;20247;-75
2020/12/25 06:14:24;;;;;;;12.65;4.15;;;2.50;99.90;;;;;;4996234;28;20546;-74
2020/12/25 06:16:59;;;;;;;15.33;3.43;;;2.50;99.90;;;;;;4996108;28;20246;-74
2020/12/25 06:19:32;;;;;;;8.10;3.25;;;2.60;99.90;;;;;;4996031;28;20181;-75
2020/12/25 06:22:06;;;;;;;9.27;2.97;;;2.50;99.90;;;;;;4995620;28;20205;-75
2020/12/25 06:24:37;;;;;;;15.32;3.30;;;2.60;99.90;;;;;;4995977;28;20177;-74
2020/12/25 06:27:05;;;;;;;16.13;4.38;;;2.40;99.90;;;;;;4995830;28;20569;-74
2020/12/25 06:29:31;;;;;;;8.20;2.90;;;2.40;99.90;;;;;;4995684;28;20183;-74
2020/12/25 06:31:58;;;;;;;15.05;3.15;;;2.40;99.90;;;;;;4995398;28;20202;-75
2020/12/25 06:35:00;;;;;;;9.98;3.60;;;2.40;99.90;;;;;;4995775;28;20259;-74
2020/12/25 06:37:30;;;;;;;14.07;2.97;;;2.40;99.90;;;;;;4974126;28;20190;-75
2020/12/25 06:40:06;;;;;;;13.35;2.95;;;2.40;99.90;;;;;;4992260;28;20248;-74
2020/12/25 06:42:34;;;;;;;13.20;2.78;;;2.50;99.90;;;;;;4995364;28;20213;-75
2020/12/25 06:45:02;;;;;;;6.28;2.78;;;2.30;99.90;;;;;;4995532;28;20701;-74
2020/12/25 06:47:33;;;;;;;12.07;3.08;;;2.30;99.90;;;;;;4995402;28;20513;-75
2020/12/25 06:50:15;;;;;;;16.77;3.08;;;2.20;99.90;;;;;;4995538;28;20166;-75
2020/12/25 06:52:52;;;;;;;6.57;3.35;;;2.20;99.90;;;;;;4995104;28;20177;-75
2020/12/25 06:55:23;;;;;;;7.25;2.80;;;2.10;99.90;;;;;;4995686;28;20187;-74
2020/12/25 06:57:55;;;;;;;16.05;3.40;;;1.80;99.90;;;;;;4995578;28;20182;-74
2020/12/25 07:00:22;;;;;;;10.63;2.92;;;1.70;99.90;;;;;;4994778;28;20218;-75
2020/12/25 07:02:48;;;;;;;10.85;2.65;;;1.80;99.90;;;;;;4994950;28;20506;-76
2020/12/25 07:05:14;;;;;;;5.78;2.60;;;1.70;99.90;;;;;;4995250;28;20191;-74
2020/12/25 07:07:40;;;;;;;16.58;3.55;;;1.80;99.90;;;;;;4995170;28;20176;-74
2020/12/25 07:10:10;;;;;;;9.30;2.70;;;1.80;99.90;;;;;;4995210;28;20233;-75
2020/12/25 07:12:37;;;;;;;10.95;2.92;;;1.80;99.90;;;;;;4994740;28;20286;-74
2020/12/25 07:15:04;;;;;;;8.65;2.78;;;1.70;99.90;;;;;;4995081;28;20175;-75
2020/12/25 07:17:30;;;;;;;10.98;2.65;;;1.70;99.90;;;;;;4994792;28;20168;-73
2020/12/25 07:19:55;;;;;;;6.43;2.67;;;1.70;99.90;;;;;;4995005;28;20181;-75
2020/12/25 07:22:21;;;;;;;13.47;2.43;;;1.70;99.90;;;;;;4994770;28;20700;-75
2020/12/25 07:24:48;;;;;;;8.63;3.03;;;1.70;99.90;;;;;;4994910;28;20207;-75
2020/12/25 07:27:14;;;;;;;6.32;2.90;;;1.70;99.90;;;;;;4994728;28;20416;-75
2020/12/25 07:29:41;;;;;;;6.60;2.78;;;1.70;99.90;;;;;;4994661;28;20535;-74
2020/12/25 07:32:08;;;;;;;9.95;3.50;;;1.80;99.90;;;;;;4994250;28;20221;-74
2020/12/25 07:34:34;;;;;;;3.88;2.00;;;1.80;99.90;;;;;;4994683;28;20202;-75
2020/12/25 07:36:59;;;;;;;10.57;2.50;;;1.70;99.90;;;;;;4994812;28;20183;-74
2020/12/25 07:39:29;;;;;;;10.37;3.03;;;1.80;99.90;;;;;;4994637;28;20426;-73
2020/12/25 07:41:55;;;;;;;9.20;2.53;;;1.90;99.90;;;;;;4993959;28;20255;-75
2020/12/25 07:44:21;;;;;;;14.30;2.85;;;1.90;99.90;;;;;;4994510;28;20529;-75
2020/12/25 07:46:48;;;;;;;7.80;2.80;;;1.80;99.90;;;;;;4994568;28;20193;-74
2020/12/25 07:49:14;;;;;;;9.75;3.17;;;2.00;99.90;;;;;;4994488;28;20207;-73
2020/12/25 07:51:40;;;;;;;10.57;3.45;;;2.20;99.90;;;;;;4994648;28;20348;-74
2020/12/25 07:54:05;;;;;;;9.50;3.00;;;2.10;99.90;;;;;;4994061;28;20187;-74
2020/12/25 07:56:33;;;;;;;18.17;3.40;;;2.20;99.90;;;;;;4994420;28;20418;-74
2020/12/25 07:59:00;;;;;;;11.20;3.55;;;2.30;99.90;;;;;;4994293;28;20722;-74
2020/12/25 08:01:28;;;;;;;14.35;3.40;;;2.30;99.90;;;;;;4994170;28;20251;-75
2020/12/25 08:03:56;;;;;;;9.50;2.72;;;2.20;99.90;;;;;;4993989;28;20176;-76
2020/12/25 08:06:23;;;;;;;9.88;3.17;;;2.10;99.90;;;;;;4994111;28;20196;-74
2020/12/25 08:08:53;;;;;;;10.95;2.97;;;2.10;99.90;;;;;;4994172;28;20184;-74
2020/12/25 08:11:20;;;;;;;4.82;2.20;;;2.10;99.90;;;;;;4993662;28;20238;-74
2020/12/25 08:13:48;;;;;;;11.88;2.83;;;2.10;99.90;;;;;;4993758;28;20545;-75
2020/12/25 08:16:14;;;;;;;7.32;2.25;;;2.20;99.90;;;;;;4994091;28;20539;-75
2020/12/25 08:18:40;;;;;;;17.05;3.70;;;2.30;99.90;;;;;;4994107;28;20176;-75
2020/12/25 08:21:06;;;;;;;9.07;3.60;;;2.20;99.90;;;;;;4993871;28;20623;-74
2020/12/25 08:23:36;;;;;;;15.93;3.10;;;2.10;99.90;;;;;;4993673;28;20969;-75
2020/12/25 08:26:04;;;;;;;9.82;2.85;;;2.20;99.90;;;;;;4993885;28;20175;-74
2020/12/25 08:28:31;;;;;;;9.52;3.38;;;2.10;99.90;;;;;;4993662;28;20710;-75
2020/12/25 08:30:58;;;;;;;6.38;3.80;;;2.40;99.90;;;;;;4993837;28;20197;-74
2020/12/25 08:33:26;;;;;;;9.10;3.30;;;2.30;99.90;;;;;;4993530;28;20187;-74
2020/12/25 08:35:52;;;;;;;13.07;3.97;;;2.40;99.90;;;;;;4993798;28;20320;-74
2020/12/25 08:38:18;;;;;;;5.77;3.20;;;2.40;99.90;;;;;;4993761;28;20820;-74
2020/12/25 08:40:47;;;;;;;20.97;4.17;;;2.50;99.90;;;;;;4993996;28;20978;-74
2020/12/25 08:43:17;;;;;;;6.18;2.78;;;2.60;99.90;;;;;;4993447;28;20409;-74
2020/12/25 08:45:54;;;;;;;13.32;3.60;;;2.30;99.90;;;;;;4993731;28;20183;-75
2020/12/25 08:48:21;;;;;;;7.32;3.55;;;2.30;99.90;;;;;;4993778;28;20171;-75
2020/12/25 08:50:47;;;;;;;4.20;2.92;;;2.20;99.90;;;;;;4993751;28;20206;-74
2020/12/25 08:53:15;;;;;;;9.73;3.30;;;2.40;99.90;;;;;;4993301;28;20634;-75
2020/12/25 08:55:41;;;;;;;8.25;4.28;;;2.40;99.90;;;;;;4993769;28;20442;-74
2020/12/25 08:58:07;;;;;;;7.32;3.38;;;2.50;99.90;;;;;;4993683;28;20189;-74
2020/12/25 09:00:33;;;;;;;6.40;2.80;;;2.40;99.90;;;;;;4993143;28;20209;-73
2020/12/25 09:02:59;;;;;;;6.27;2.60;;;2.40;99.90;;;;;;4993469;28;20189;-74
2020/12/25 09:05:24;;;;;;;17.88;3.50;;;2.60;99.90;;;;;;4993726;28;20205;-74
2020/12/25 09:07:50;;;;;;;10.63;3.63;;;2.70;99.90;;;;;;4993887;28;20555;-75
2020/12/25 09:10:16;;;;;;;16.27;4.67;;;2.70;99.90;;;;;;4993568;28;20173;-74
2020/12/25 09:12:42;;;;;;;6.30;3.10;;;2.70;99.90;;;;;;4993212;28;20224;-75
2020/12/25 09:15:08;;;;;;;6.33;3.40;;;2.70;99.90;;;;;;4993540;28;20177;-74
2020/12/25 09:17:33;;;;;;;3.57;2.80;;;2.60;99.90;;;;;;4993511;28;20770;-74
2020/12/25 09:19:59;;;;;;;4.80;2.77;;;2.80;99.90;;;;;;4993402;28;20244;-75
2020/12/25 09:22:24;;;;;;;8.97;3.40;;;2.70;99.90;;;;;;4992872;28;20229;-74
2020/12/25 09:24:50;;;;;;;10.10;3.80;;;2.80;99.90;;;;;;4997139;28;20176;-74
2020/12/25 09:27:15;;;;;;;5.43;3.60;;;2.80;99.90;;;;;;4997150;28;20312;-74
2020/12/25 09:29:41;;;;;;;8.77;3.30;;;2.60;99.90;;;;;;4997042;28;20186;-75
2020/12/25 09:32:07;;;;;;;8.87;4.00;;;2.50;99.90;;;;;;4996680;28;20748;-74
2020/12/25 09:34:33;;;;;;;4.50;2.90;;;2.70;99.90;;;;;;4996869;28;20208;-75
2020/12/25 09:36:58;;;;;;;5.17;3.17;;;2.90;99.90;;;;;;4996816;28;20413;-75
2020/12/25 09:39:24;;;;;;;4.30;3.10;;;3.10;99.90;;;;;;4996956;28;20622;-74
2020/12/25 09:41:49;;;;;;;7.70;2.67;;;3.20;99.90;;;;;;4996304;28;20298;-74
2020/12/25 09:44:15;;;;;;;6.57;3.47;;;3.00;99.90;;;;;;4996247;28;20180;-74
2020/12/25 09:46:41;;;;;;;9.23;3.33;;;2.90;99.90;;;;;;4996671;28;20267;-75
2020/12/25 09:49:07;;;;;;;6.70;2.83;;;3.10;99.90;;;;;;4997358;28;20171;-74
2020/12/25 09:51:33;;;;;;;8.60;3.10;;;3.00;99.90;;;;;;4997241;28;20597;-75
2020/12/25 09:53:58;;;;;;;8.20;2.87;;;3.20;99.90;;;;;;4996981;28;20647;-74
2020/12/25 09:56:24;;;;;;;6.50;2.90;;;3.20;99.90;;;;;;4997392;28;20558;-75
2020/12/25 09:58:49;;;;;;;11.60;2.80;;;3.40;99.90;;;;;;4996825;28;20171;-75
2020/12/25 10:01:15;;;;;;;5.83;3.20;;;3.60;99.90;;;;;;4996599;28;20225;-74
2020/12/25 10:03:40;;;;;;;8.00;2.97;;;3.50;99.90;;;;;;4996391;28;20174;-74
2020/12/25 10:06:06;;;;;;;6.97;2.90;;;3.70;99.90;;;;;;4996803;28;20168;-74
2020/12/25 10:08:32;;;;;;;11.33;2.80;;;4.10;99.90;;;;;;4996633;28;20267;-74
2020/12/25 10:10:57;;;;;;;7.33;2.70;;;4.20;99.90;;;;;;4996673;28;20253;-74
2020/12/25 10:13:24;;;;;;;11.57;3.13;;;4.40;99.90;;;;;;4996215;28;20242;-75
2020/12/25 10:15:49;;;;;;;13.02;3.95;;;4.70;99.90;;;;;;4997024;28;20179;-75
2020/12/25 10:18:16;;;;;;;6.20;2.30;;;5.00;99.90;;;;;;4996747;28;20182;-75
2020/12/25 10:20:41;;;;;;;4.93;2.05;;;5.00;99.90;;;;;;4997949;28;20207;-75
2020/12/25 10:23:07;;;;;;;9.47;2.50;;;4.70;99.90;;;;;;4998844;28;20180;-73
2020/12/25 10:25:33;;;;;;;5.17;1.83;;;4.70;99.90;;;;;;5000818;28;20255;-75
2020/12/25 10:27:58;;;;;;;3.87;1.80;;;4.60;99.90;;;;;;5001140;28;20195;-79
2020/12/25 10:30:24;;;;;;;10.43;1.90;;;4.50;99.90;;;;;;5000781;28;20175;-73
2020/12/25 10:32:49;;;;;;;8.63;2.90;;;4.50;99.90;;;;;;4997141;28;20182;-75
2020/12/25 10:35:15;;;;;;;7.30;2.30;;;4.70;99.90;;;;;;4995904;28;20191;-75
2020/12/25 10:37:41;;;;;;;6.53;3.07;;;4.70;99.90;;;;;;4997126;28;20227;-74
2020/12/25 10:40:06;;;;;;;3.60;2.23;;;4.70;99.90;;;;;;4997387;28;20172;-76
2020/12/25 10:42:32;;;;;;;5.87;1.80;;;4.70;99.90;;;;;;4995107;28;20211;-75
2020/12/25 10:44:58;;;;;;;6.57;2.40;;;4.90;99.90;;;;;;4996496;28;20178;-77
2020/12/25 10:47:24;;;;;;;7.13;2.83;;;4.70;99.90;;;;;;4996170;28;20178;-75
2020/12/25 10:49:49;;;;;;;4.40;2.03;;;4.50;99.90;;;;;;4995708;28;20770;-74
2020/12/25 10:52:15;;;;;;;4.57;1.90;;;4.70;99.90;;;;;;4995343;28;20297;-75
2020/12/25 10:54:40;;;;;;;10.27;1.87;;;4.70;99.90;;;;;;4995553;28;20658;-75
2020/12/25 10:57:06;;;;;;;4.63;2.43;;;4.60;99.90;;;;;;4993951;28;20187;-76
2020/12/25 10:59:31;;;;;;;8.27;2.40;;;4.50;99.90;;;;;;4995347;28;20258;-76
2020/12/25 11:01:57;;;;;;;8.27;1.90;;;4.60;99.90;;;;;;4998367;28;20234;-76
2020/12/25 11:04:23;;;;;;;2.67;1.53;;;4.80;99.90;;;;;;5013104;28;20285;-75
2020/12/25 11:06:48;;;;;;;6.50;2.63;;;4.80;99.90;;;;;;5012122;28;20304;-76
2020/12/25 11:09:14;;;;;;;5.77;2.30;;;4.70;99.90;;;;;;5013133;28;20712;-75
2020/12/25 11:11:40;;;;;;;6.23;1.87;;;4.60;99.90;;;;;;5014078;28;20202;-73
2020/12/25 11:14:06;;;;;;;5.43;2.10;;;4.70;99.90;;;;;;5014745;28;20182;-73
2020/12/25 11:16:34;;;;;;;6.63;2.80;;;4.70;99.90;;;;;;5014663;28;20170;-74
2020/12/25 11:19:01;;;;;;;8.57;3.25;;;4.90;99.90;;;;;;5014687;28;20206;-75
2020/12/25 11:21:31;;;;;;;7.85;2.72;;;5.00;99.90;;;;;;5014359;28;20341;-74
2020/12/25 11:23:58;;;;;;;7.13;1.83;;;5.00;99.90;;;;;;5014267;28;20174;-75
2020/12/25 11:26:25;;;;;;;10.68;2.25;;;5.00;99.90;;;;;;5014604;28;20175;-75
2020/12/25 11:28:52;;;;;;;13.23;2.63;;;4.80;99.90;;;;;;5014323;28;20273;-75
2020/12/25 11:31:18;;;;;;;8.02;2.67;;;4.80;99.90;;;;;;5014380;28;20191;-75
2020/12/25 11:33:48;;;;;;;5.90;2.10;;;4.80;99.90;;;;;;5014203;28;20186;-77
2020/12/25 11:36:24;;;;;;;10.00;2.60;;;4.90;99.90;;;;;;5014220;28;20181;-74
2020/12/25 11:38:50;;;;;;;6.43;2.53;;;5.10;99.90;;;;;;5014418;28;20263;-76
2020/12/25 11:41:18;;;;;;;5.07;1.25;;;5.60;99.90;;;;;;5014082;28;20598;-74
2020/12/25 11:43:45;;;;;;;4.15;1.70;;;5.40;99.90;;;;;;5013813;28;20193;-73
2020/12/25 11:46:11;;;;;;;8.93;2.03;;;5.50;99.90;;;;;;5013457;28;20174;-73
2020/12/25 11:48:37;;;;;;;3.65;1.70;;;5.30;99.90;;;;;;5013927;28;20182;-74
2020/12/25 11:51:03;;;;;;;5.30;1.90;;;5.30;99.90;;;;;;5014041;28;20590;-72
2020/12/25 11:53:29;;;;;;;10.68;1.70;;;5.10;99.90;;;;;;5013648;28;20420;-75
2020/12/25 11:55:55;;;;;;;4.50;2.10;;;5.20;99.90;;;;;;5014112;28;20181;-73
2020/12/25 11:58:20;;;;;;;4.80;2.53;;;5.30;99.90;;;;;;5014163;28;20579;-73
2020/12/25 12:00:46;;;;;;;5.30;1.73;;;5.40;99.90;;;;;;5013837;28;20294;-74
2020/12/25 12:03:12;;;;;;;6.10;1.80;;;5.70;99.90;;;;;;5013947;28;20183;-74
2020/12/25 12:05:42;;;;;;;9.15;2.00;;;5.60;99.90;;;;;;5014378;28;20446;-75
2020/12/25 12:08:11;;;;;;;8.27;2.55;;;5.60;99.90;;;;;;5014226;28;20176;-73
2020/12/25 12:10:38;;;;;;;5.55;1.80;;;5.60;99.90;;;;;;5013834;28;20201;-74
2020/12/25 12:13:04;;;;;;;8.32;2.22;;;5.50;99.90;;;;;;5013332;28;20217;-75
2020/12/25 12:15:38;;;;;;;6.45;1.80;;;5.50;99.90;;;;;;5013781;28;20210;-74
2020/12/25 12:18:05;;;;;;;15.68;2.92;;;5.40;99.90;;;;;;5013411;28;20179;-73
2020/12/25 12:20:36;;;;;;;6.03;2.95;;;5.30;99.90;;;;;;5014046;28;20174;-75
2020/12/25 12:23:02;;;;;;;8.95;2.22;;;5.20;99.90;;;;;;5013730;28;20170;-74
2020/12/25 12:25:28;;;;;;;10.23;3.25;;;5.30;99.90;;;;;;5013786;28;20518;-75
2020/12/25 12:27:54;;;;;;;8.10;3.10;;;5.40;99.90;;;;;;5013488;28;20194;-74
2020/12/25 12:30:20;;;;;;;4.90;2.30;;;5.50;99.90;;;;;;5013501;28;20417;-74
2020/12/25 12:32:46;;;;;;;4.67;2.10;;;5.40;99.90;;;;;;5013256;28;20197;-75
2020/12/25 12:35:12;;;;;;;15.70;2.37;;;5.40;99.90;;;;;;5013459;28;20468;-75
2020/12/25 12:37:37;;;;;;;5.90;2.20;;;5.30;99.90;;;;;;5013419;28;20653;-74
2020/12/25 12:40:04;;;;;;;10.43;3.10;;;5.40;99.90;;;;;;5013195;28;20429;-75
2020/12/25 12:42:34;;;;;;;5.43;1.83;;;5.50;99.90;;;;;;5012878;28;20217;-75
2020/12/25 12:44:59;;;;;;;9.10;2.35;;;5.50;99.90;;;;;;5013328;28;20191;-75
2020/12/25 12:47:27;;;;;;;9.47;2.23;;;5.60;99.90;;;;;;5013388;28;20183;-75
2020/12/25 12:49:52;;;;;;;4.40;2.22;;;5.70;99.90;;;;;;5013458;28;20175;-76